Time;durP1;ratioP1;P1;durP2;ratioP2;P2;SDS_P1;SDS_P2;PMS_P1;PMS_P2;Temp;Humidity;BMP_temperature;BMP_pressure;BME280_temperature;BME280_humidity;BME280_pressure;Samples;Min_cycle;Max_cycle;Signal;HPM_P1;HPM_P2
2022/07/22 00:00:09;;;;;;;14.68;4.03;;;;;;;26.13;100.00;102058.53;5080047;28;20033;-52
2022/07/22 00:02:35;;;;;;;12.03;3.80;;;;;;;25.66;100.00;102046.63;5084270;28;20029;-48
2022/07/22 00:05:00;;;;;;;16.35;4.60;;;;;;;25.51;100.00;102046.59;5078440;28;20040;-53
2022/07/22 00:07:26;;;;;;;11.68;3.63;;;;;;;25.53;100.00;102056.19;5084295;28;20101;-52
2022/07/22 00:09:51;;;;;;;15.65;4.22;;;;;;;25.53;100.00;102047.97;5078389;28;20063;-50
2022/07/22 00:12:17;;;;;;;11.90;3.27;;;;;;;25.68;100.00;102049.94;5076945;28;20044;-51
2022/07/22 00:14:42;;;;;;;12.47;3.23;;;;;;;25.74;100.00;102051.63;5082041;28;20399;-51
2022/07/22 00:17:08;;;;;;;20.90;4.63;;;;;;;25.65;100.00;102041.44;5080088;28;20032;-50
2022/07/22 00:19:35;;;;;;;10.38;3.63;;;;;;;25.52;100.00;102048.25;5085181;28;20116;-49
2022/07/22 00:22:00;;;;;;;10.05;4.03;;;;;;;25.41;100.00;102041.88;5081124;28;20029;-49
2022/07/22 00:24:26;;;;;;;14.20;4.47;;;;;;;25.16;100.00;102046.13;5079566;28;20029;-54
2022/07/22 00:26:51;;;;;;;15.25;4.30;;;;;;;25.14;100.00;102043.66;5080127;28;20032;-51
2022/07/22 00:29:17;;;;;;;20.98;3.25;;;;;;;25.16;100.00;102040.66;5081374;28;20037;-53
2022/07/22 00:31:42;;;;;;;11.98;3.67;;;;;;;25.26;100.00;102037.97;5081072;28;20066;-50
2022/07/22 00:34:08;;;;;;;12.23;3.17;;;;;;;25.22;100.00;102033.28;5078692;28;20032;-50
2022/07/22 00:36:33;;;;;;;7.93;2.95;;;;;;;25.30;100.00;102041.00;5081540;28;20046;-50
2022/07/22 00:39:02;;;;;;;10.07;4.80;;;;;;;25.62;100.00;102032.69;5081085;28;20033;-54
2022/07/22 00:41:28;;;;;;;;;;;;;;;25.50;100.00;102040.28;5076942;28;20059;-52
2022/07/22 00:44:04;;;;;;;12.40;3.37;;;;;;;25.53;100.00;102036.19;5076202;28;19916;-51
2022/07/22 00:46:31;;;;;;;13.85;4.18;;;;;;;25.31;100.00;102040.72;5073441;28;20065;-53
2022/07/22 00:48:57;;;;;;;13.83;4.00;;;;;;;25.18;100.00;102031.06;5073409;28;20036;-55
2022/07/22 00:51:24;;;;;;;;;;;;;;;24.69;100.00;102023.09;5085322;28;20124;-50
2022/07/22 00:53:51;;;;;;;9.37;3.17;;;;;;;24.81;100.00;102022.94;5073551;28;19916;-50
2022/07/22 00:56:17;;;;;;;19.40;4.13;;;;;;;24.92;100.00;102011.78;5077827;28;20049;-49
2022/07/22 00:58:43;;;;;;;11.63;3.47;;;;;;;24.89;100.00;102014.22;5073796;28;20033;-51
2022/07/22 01:01:09;;;;;;;13.20;3.80;;;;;;;24.57;100.00;102015.06;5074142;28;20037;-50
2022/07/22 01:03:35;;;;;;;18.77;3.92;;;;;;;24.89;100.00;102019.69;5074852;28;20129;-49
2022/07/22 01:06:01;;;;;;;9.85;2.95;;;;;;;24.71;100.00;102024.50;5068668;28;20045;-47
2022/07/22 01:08:27;;;;;;;12.40;3.28;;;;;;;24.57;100.00;102018.66;5072467;28;20044;-49
2022/07/22 01:10:52;;;;;;;11.70;4.07;;;;;;;24.84;100.00;102016.94;5076144;28;20029;-52
2022/07/22 01:13:18;;;;;;;14.65;4.38;;;;;;;24.74;100.00;102025.84;5073087;28;20029;-53
2022/07/22 01:15:44;;;;;;;10.38;3.97;;;;;;;24.56;100.00;102021.63;5070933;28;20038;-50
2022/07/22 01:18:09;;;;;;;21.08;3.55;;;;;;;24.61;100.00;102030.69;5075526;28;20100;-51
2022/07/22 01:20:35;;;;;;;12.98;3.75;;;;;;;24.63;100.00;102027.69;5073553;28;20055;-48
2022/07/22 01:23:01;;;;;;;13.52;3.78;;;;;;;24.81;100.00;102029.25;5073373;28;20029;-48
2022/07/22 01:25:27;;;;;;;12.68;3.67;;;;;;;24.73;100.00;102027.78;5072933;28;20040;-47
2022/07/22 01:27:53;;;;;;;17.15;4.38;;;;;;;24.92;100.00;102030.94;5076654;28;20051;-49
2022/07/22 01:30:19;;;;;;;;;;;;;;;24.39;100.00;102021.78;5081853;28;20096;-53
2022/07/22 01:32:45;;;;;;;16.13;4.10;;;;;;;24.59;100.00;102021.94;5072639;28;19920;-51
2022/07/22 01:35:11;;;;;;;7.57;3.03;;;;;;;24.64;100.00;102029.34;5076103;28;20039;-50
2022/07/22 01:37:37;;;;;;;;;;;;;;;24.78;100.00;102024.25;5070206;28;20041;-49
2022/07/22 01:40:03;;;;;;;8.13;3.47;;;;;;;24.86;100.00;102032.00;5055238;28;19917;-52
2022/07/22 01:42:29;;;;;;;;;;;;;;;24.77;100.00;102022.63;5074593;28;20025;-54
2022/07/22 01:44:54;;;;;;;13.97;3.83;;;;;;;24.90;100.00;102015.84;5079663;28;19939;-52
2022/07/22 01:47:20;;;;;;;14.02;4.65;;;;;;;24.96;100.00;102022.19;5078993;28;20055;-50
2022/07/22 01:49:45;;;;;;;11.30;3.83;;;;;;;24.98;100.00;102015.38;5076631;28;20033;-48
2022/07/22 01:52:11;;;;;;;16.27;3.67;;;;;;;25.26;100.00;102023.44;5077533;28;20290;-49
2022/07/22 01:54:37;;;;;;;10.37;3.00;;;;;;;25.01;100.00;102028.53;5076782;28;20097;-52
2022/07/22 01:57:04;;;;;;;15.32;3.50;;;;;;;24.84;100.00;102022.41;5070238;28;20033;-53
2022/07/22 01:59:30;;;;;;;16.67;3.30;;;;;;;24.80;100.00;102022.13;5076615;28;20041;-49
2022/07/22 02:01:56;;;;;;;14.38;3.72;;;;;;;24.56;100.00;102016.16;5095882;28;20108;-52
2022/07/22 02:04:23;;;;;;;18.33;3.90;;;;;;;24.82;100.00;102013.63;5069888;28;20052;-52
2022/07/22 02:06:49;;;;;;;10.32;3.30;;;;;;;24.48;100.00;102015.56;5071505;28;20036;-49
2022/07/22 02:09:15;;;;;;;17.05;3.72;;;;;;;24.45;100.00;102016.09;5078856;28;20066;-50
2022/07/22 02:11:48;;;;;;;10.10;3.77;;;;;;;24.36;100.00;102003.97;5070437;28;20033;-48
2022/07/22 02:14:15;;;;;;;11.77;3.67;;;;;;;24.40;100.00;102004.28;5071266;28;20033;-50
2022/07/22 02:16:41;;;;;;;11.03;3.73;;;;;;;24.46;100.00;102006.81;5074158;28;20033;-51
2022/07/22 02:19:10;;;;;;;17.33;4.23;;;;;;;24.41;100.00;102003.19;5072212;28;20037;-54
2022/07/22 02:21:35;;;;;;;10.50;2.90;;;;;;;24.19;100.00;102007.66;5076878;28;20043;-52
2022/07/22 02:24:00;;;;;;;12.43;4.00;;;;;;;24.36;100.00;102001.25;5077830;28;20288;-49
2022/07/22 02:26:26;;;;;;;18.92;3.90;;;;;;;24.41;100.00;102003.19;5074585;28;20305;-50
2022/07/22 02:28:52;;;;;;;12.00;3.13;;;;;;;24.45;100.00;102005.16;5075941;28;20100;-50
2022/07/22 02:31:17;;;;;;;16.98;3.30;;;;;;;25.01;100.00;101995.69;5069727;28;20033;-49
2022/07/22 02:33:42;;;;;;;13.57;2.85;;;;;;;24.65;100.00;102008.28;5074598;28;20037;-52
2022/07/22 02:36:09;;;;;;;12.25;3.35;;;;;;;24.58;100.00;102003.03;5077573;28;20044;-52
2022/07/22 02:38:35;;;;;;;11.70;3.10;;;;;;;24.61;100.00;101986.94;5068780;28;20032;-52
2022/07/22 02:41:01;;;;;;;23.75;2.83;;;;;;;24.70;100.00;101992.75;5079207;28;20040;-50
2022/07/22 02:43:27;;;;;;;14.77;3.20;;;;;;;24.69;100.00;101996.56;5082766;28;20052;-52
2022/07/22 02:45:53;;;;;;;10.73;2.50;;;;;;;24.51;100.00;101997.81;5077211;28;20073;-52
2022/07/22 02:48:19;;;;;;;11.57;2.70;;;;;;;24.66;100.00;101999.00;5082634;28;20040;-48
2022/07/22 02:50:46;;;;;;;;;;;;;;;24.42;100.00;102002.13;5076092;28;20039;-49
2022/07/22 02:53:13;;;;;;;12.00;2.60;;;;;;;24.40;100.00;102002.38;5075788;28;19926;-50
2022/07/22 02:55:39;;;;;;;11.50;2.88;;;;;;;24.74;100.00;102012.19;5088272;28;20060;-48
2022/07/22 02:58:05;;;;;;;;;;;;;;;24.63;100.00;102006.66;5082147;28;20043;-53
2022/07/22 03:00:31;;;;;;;12.17;2.63;;;;;;;24.66;100.00;102005.28;5077039;28;19912;-49
2022/07/22 03:02:57;;;;;;;13.25;2.60;;;;;;;25.58;100.00;102004.16;5077180;28;20097;-51
2022/07/22 03:05:24;;;;;;;12.20;3.50;;;;;;;24.73;100.00;102000.44;5082436;28;20044;-48
2022/07/22 03:07:55;;;;;;;9.33;3.40;;;;;;;24.66;100.00;102001.75;5073154;28;20033;-53
2022/07/22 03:10:21;;;;;;;12.68;3.20;;;;;;;24.86;100.00;101990.13;5075678;28;20116;-51
2022/07/22 03:12:48;;;;;;;19.97;3.77;;;;;;;24.90;100.00;101994.81;5080522;28;20048;-52
2022/07/22 03:15:16;;;;;;;10.07;3.13;;;;;;;24.70;100.00;101992.75;5081124;28;20091;-53
2022/07/22 03:17:42;;;;;;;11.50;3.33;;;;;;;24.87;100.00;101989.88;5083126;28;20104;-49
2022/07/22 03:20:09;;;;;;;14.23;3.80;;;;;;;25.21;100.00;101996.88;5083686;28;20041;-51
2022/07/22 03:22:35;;;;;;;14.03;3.53;;;;;;;24.25;100.00;101994.06;5079881;28;20140;-52
2022/07/22 03:25:02;;;;;;;;;;;;;;;24.56;100.00;101994.28;5084597;28;21216;-49
2022/07/22 03:27:27;;;;;;;12.70;2.90;;;;;;;24.62;100.00;102001.44;5080989;28;19908;-53
2022/07/22 03:29:53;;;;;;;13.60;4.03;;;;;;;24.70;100.00;101995.50;5077476;28;20128;-48
2022/07/22 03:32:19;;;;;;;10.13;3.28;;;;;;;24.75;100.00;101992.81;5081066;28;20036;-54
2022/07/22 03:34:47;;;;;;;10.00;3.13;;;;;;;24.94;100.00;101997.84;5076676;28;20044;-52
2022/07/22 03:37:12;;;;;;;13.88;2.67;;;;;;;24.26;100.00;101992.97;5083016;28;20063;-51
2022/07/22 03:39:40;;;;;;;11.23;2.93;;;;;;;24.14;100.00;101993.13;5078264;28;20032;-51
2022/07/22 03:42:06;;;;;;;16.70;3.20;;;;;;;24.27;100.00;101989.97;5078255;28;20418;-52
2022/07/22 03:44:39;;;;;;;9.70;3.30;;;;;;;24.22;100.00;101994.56;5081916;28;20041;-51
2022/07/22 03:47:05;;;;;;;10.00;2.95;;;;;;;23.76;100.00;101993.84;5077835;28;20025;-47
2022/07/22 03:49:31;;;;;;;12.05;3.65;;;;;;;23.97;100.00;101982.28;5076969;28;20037;-50
2022/07/22 03:51:57;;;;;;;6.40;2.97;;;;;;;24.40;100.00;101993.34;5072519;28;20029;-48
2022/07/22 03:54:24;;;;;;;12.57;3.60;;;;;;;24.13;100.00;101992.31;5080342;28;20083;-48
2022/07/22 03:56:50;;;;;;;17.17;4.38;;;;;;;24.16;100.00;101993.69;5083938;28;20032;-49
2022/07/22 03:59:17;;;;;;;8.95;3.50;;;;;;;24.33;100.00;101986.16;5080506;28;20048;-53
2022/07/22 04:01:43;;;;;;;;;;;;;;;24.50;100.00;101987.94;5079972;28;20059;-50
2022/07/22 04:04:10;;;;;;;14.87;3.67;;;;;;;24.31;100.00;101993.00;5082727;28;19912;-51
2022/07/22 04:06:40;;;;;;;9.40;3.73;;;;;;;24.20;100.00;101992.09;5078270;28;20041;-52
2022/07/22 04:09:10;;;;;;;8.33;3.60;;;;;;;24.19;100.00;101995.91;5067020;28;20027;-49
2022/07/22 04:11:36;;;;;;;12.60;2.45;;;;;;;24.34;100.00;101987.00;5080624;28;20036;-49
2022/07/22 04:14:02;;;;;;;16.65;3.05;;;;;;;24.18;100.00;101989.59;5080348;28;20049;-54
2022/07/22 04:16:28;;;;;;;17.07;4.10;;;;;;;24.31;100.00;101991.06;5083271;28;20096;-50
2022/07/22 04:19:03;;;;;;;10.97;2.67;;;;;;;23.20;100.00;101994.81;5082428;28;20033;-47
2022/07/22 04:21:47;;;;;;;9.00;2.50;;;;;;;22.85;100.00;101995.13;5079989;28;20029;-48
2022/07/22 04:24:14;;;;;;;16.67;2.90;;;;;;;23.20;100.00;101999.41;5075873;28;20024;-55
2022/07/22 04:26:39;;;;;;;7.38;2.50;;;;;;;22.97;100.00;101998.56;5078493;28;20025;-50
2022/07/22 04:29:05;;;;;;;10.88;3.17;;;;;;;22.91;100.00;101994.13;5078410;28;20056;-50
2022/07/22 04:31:31;;;;;;;;;;;;;;;22.84;100.00;101993.47;5076533;28;20036;-51
2022/07/22 04:34:04;;;;;;;14.37;3.53;;;;;;;23.27;100.00;101999.25;5072981;28;19968;-55
2022/07/22 04:36:30;;;;;;;10.13;2.97;;;;;;;23.36;100.00;101995.00;5080586;28;20097;-53
2022/07/22 04:38:58;;;;;;;8.80;3.17;;;;;;;23.03;100.00;101994.00;5079015;28;20033;-51
2022/07/22 04:41:24;;;;;;;8.40;3.07;;;;;;;22.95;100.00;101988.97;5080940;28;20060;-52
2022/07/22 04:43:50;;;;;;;15.85;3.75;;;;;;;22.89;100.00;101985.38;5079203;28;20032;-53
2022/07/22 04:46:16;;;;;;;6.68;2.70;;;;;;;22.80;100.00;101981.41;5079073;28;20039;-51
2022/07/22 04:48:42;;;;;;;8.67;2.40;;;;;;;22.80;100.00;101984.13;5080263;28;20025;-52
2022/07/22 04:51:08;;;;;;;10.07;4.15;;;;;;;23.14;100.00;101981.34;5079787;28;20036;-53
2022/07/22 04:53:34;;;;;;;15.13;5.20;;;;;;;23.28;100.00;101979.09;5078703;28;20040;-49
2022/07/22 04:56:00;;;;;;;21.58;10.77;;;;;;;23.47;100.00;101971.38;5079430;28;20029;-51
2022/07/22 04:58:26;;;;;;;34.30;15.27;;;;;;;24.33;100.00;101977.16;5077976;28;20041;-48
2022/07/22 05:00:51;;;;;;;30.67;11.82;;;;;;;23.92;100.00;101977.59;5080855;28;20039;-50
2022/07/22 05:03:18;;;;;;;36.25;15.93;;;;;;;23.62;100.00;101977.03;5076682;28;20029;-50
2022/07/22 05:05:43;;;;;;;42.95;23.45;;;;;;;23.69;100.00;101976.00;5082243;28;20575;-50
2022/07/22 05:08:10;;;;;;;21.83;10.33;;;;;;;23.55;100.00;101978.31;5077234;28;20032;-53
2022/07/22 05:10:37;;;;;;;14.87;6.17;;;;;;;25.20;100.00;101981.56;5079893;28;20028;-49
2022/07/22 05:13:03;;;;;;;21.63;10.93;;;;;;;23.76;100.00;101982.09;5081239;28;20036;-49
2022/07/22 05:15:31;;;;;;;42.43;21.33;;;;;;;23.92;100.00;101975.69;5078246;28;20692;-49
2022/07/22 05:17:57;;;;;;;31.25;15.10;;;;;;;23.90;100.00;101983.31;5078260;28;20048;-55
2022/07/22 05:20:26;;;;;;;15.77;6.57;;;;;;;23.85;100.00;101986.00;5081088;28;20563;-51
2022/07/22 05:22:52;;;;;;;12.38;5.50;;;;;;;23.90;100.00;101977.84;5077961;28;20040;-52
2022/07/22 05:25:25;;;;;;;15.57;6.00;;;;;;;23.84;100.00;101988.97;5078093;28;20040;-49
2022/07/22 05:27:51;;;;;;;10.07;3.30;;;;;;;23.80;100.00;101987.84;5080475;28;20047;-51
2022/07/22 05:30:19;;;;;;;11.20;4.10;;;;;;;24.24;100.00;101981.47;5076929;28;20051;-52
2022/07/22 05:32:44;;;;;;;24.33;11.55;;;;;;;24.09;100.00;101982.97;5078796;28;20037;-49
2022/07/22 05:35:11;;;;;;;17.03;7.23;;;;;;;23.88;100.00;101995.59;5073294;28;20050;-54
2022/07/22 05:37:37;;;;;;;13.93;4.00;;;;;;;24.52;100.00;101993.16;5072016;28;20048;-54
2022/07/22 05:40:04;;;;;;;15.45;2.97;;;;;;;24.04;100.00;101994.69;5078501;28;20036;-52
2022/07/22 05:42:30;;;;;;;6.50;2.13;;;;;;;24.02;100.00;101993.31;5080442;28;20044;-53
2022/07/22 05:44:55;;;;;;;11.40;3.50;;;;;;;24.52;100.00;101996.72;5082466;28;20108;-53
2022/07/22 05:47:21;;;;;;;5.95;2.10;;;;;;;24.71;100.00;101997.13;5076787;28;20060;-55
2022/07/22 05:49:47;;;;;;;11.18;3.53;;;;;;;24.06;100.00;101999.91;5077607;28;20040;-52
2022/07/22 05:52:13;;;;;;;5.97;2.05;;;;;;;24.71;100.00;101997.13;5076196;28;20038;-52
2022/07/22 05:54:40;;;;;;;8.07;1.80;;;;;;;24.21;100.00;101996.47;5081114;28;20074;-53
2022/07/22 05:57:09;;;;;;;9.43;2.22;;;;;;;24.18;100.00;101995.06;5081046;28;20028;-55
2022/07/22 05:59:36;;;;;;;3.57;1.90;;;;;;;24.67;100.00;102004.19;5074243;28;20036;-53
2022/07/22 06:02:03;;;;;;;11.00;2.03;;;;;;;24.09;100.00;102004.84;5075625;28;20032;-53
2022/07/22 06:04:39;;;;;;;5.20;2.03;;;;;;;23.73;100.00;102005.28;5078879;28;20037;-53
2022/07/22 06:07:06;;;;;;;7.93;1.90;;;;;;;24.46;100.00;102001.34;5079936;28;20100;-51
2022/07/22 06:09:32;;;;;;;5.00;1.63;;;;;;;23.98;100.00;102001.16;5081244;28;20096;-51
2022/07/22 06:11:57;;;;;;;9.25;2.00;;;;;;;23.75;100.00;101994.06;5061694;28;20032;-48
2022/07/22 06:14:23;;;;;;;8.07;2.13;;;;;;;23.71;100.00;102001.13;5081542;28;20131;-52
2022/07/22 06:16:49;;;;;;;;;;;;;;;24.37;100.00;101993.88;5079694;28;20056;-51
2022/07/22 06:19:15;;;;;;;6.73;1.63;;;;;;;24.43;100.00;101996.38;5080318;28;19916;-48
2022/07/22 06:21:41;;;;;;;9.43;1.73;;;;;;;25.64;100.00;101996.78;5082567;28;20039;-53
2022/07/22 06:24:08;;;;;;;7.77;1.60;;;;;;;24.78;100.00;101996.91;5079613;28;20069;-51
2022/07/22 06:26:34;;;;;;;9.63;1.70;;;;;;;24.48;100.00;102001.06;5077499;28;20033;-51
2022/07/22 06:29:00;;;;;;;9.93;1.70;;;;;;;25.00;100.00;101994.03;5077073;28;20033;-52
2022/07/22 06:31:25;;;;;;;5.20;1.52;;;;;;;24.63;100.00;101994.88;5080983;28;20097;-47
2022/07/22 06:33:50;;;;;;;5.53;1.83;;;;;;;24.62;100.00;101993.22;5084069;28;20036;-48
2022/07/22 06:36:17;;;;;;;4.07;2.10;;;;;;;25.05;100.00;101988.59;5075118;28;20032;-52
2022/07/22 06:38:43;;;;;;;5.40;1.83;;;;;;;25.01;100.00;101992.97;5076014;28;20037;-49
2022/07/22 06:41:39;;;;;;;4.97;1.70;;;;;;;25.58;100.00;101990.47;5078348;28;20033;-50
2022/07/22 06:44:05;;;;;;;4.38;2.15;;;;;;;25.11;100.00;101994.09;5077842;28;20064;-49
2022/07/22 06:46:46;;;;;;;9.30;1.47;;;;;;;25.10;100.00;101997.91;5080187;28;20032;-50
2022/07/22 06:49:11;;;;;;;4.47;1.65;;;;;;;25.19;100.00;101991.66;5075037;28;20101;-49
2022/07/22 06:51:37;;;;;;;11.20;1.88;;;;;;;25.35;100.00;101999.94;5073837;28;20037;-50
2022/07/22 06:54:02;;;;;;;6.50;1.65;;;;;;;25.82;100.00;102000.94;5079275;28;20037;-51
2022/07/22 06:56:28;;;;;;;15.07;1.75;;;;;;;26.10;100.00;102006.19;5075898;28;20043;-52
2022/07/22 06:58:53;;;;;;;15.65;2.03;;;;;;;26.08;100.00;102009.22;5076239;28;20067;-53
2022/07/22 07:01:20;;;;;;;7.07;1.90;;;;;;;26.28;100.00;102002.09;5079576;28;20056;-52
2022/07/22 07:03:51;;;;;;;7.43;1.93;;;;;;;26.32;100.00;101997.72;5075540;28;20073;-54
2022/07/22 07:06:17;;;;;;;4.75;1.45;;;;;;;26.28;100.00;101997.44;5077737;28;20060;-53
2022/07/22 07:09:07;;;;;;;7.33;1.43;;;;;;;26.83;100.00;101999.56;5075039;28;20118;-54
2022/07/22 07:11:34;;;;;;;4.63;1.17;;;;;;;26.47;100.00;102003.19;5079328;28;20032;-48
2022/07/22 07:14:03;;;;;;;7.30;1.67;;;;;;;26.68;100.00;102002.34;5082324;28;20043;-48
2022/07/22 07:16:29;;;;;;;3.60;1.40;;;;;;;26.47;100.00;102000.44;5081029;28;20043;-50
2022/07/22 07:18:54;;;;;;;4.15;2.17;;;;;;;26.45;100.00;102002.66;5080978;28;20028;-50
2022/07/22 07:21:20;;;;;;;;;;;;;;;26.49;100.00;102003.72;5081591;28;20064;-49
2022/07/22 07:23:46;;;;;;;6.90;1.87;;;;;;;27.37;100.00;102005.47;5083922;28;19944;-53
2022/07/22 07:26:11;;;;;;;2.33;1.27;;;;;;;26.24;100.00;101998.25;5074618;28;20116;-52
2022/07/22 07:28:37;;;;;;;6.78;1.85;;;;;;;26.14;100.00;101994.41;5077369;28;20039;-52
2022/07/22 07:31:14;;;;;;;;;;;;;;;26.02;100.00;102002.06;5083432;28;20037;-53
2022/07/22 07:33:39;;;;;;;5.67;1.30;;;;;;;26.09;100.00;101997.16;5076558;28;19930;-49
2022/07/22 07:36:05;;;;;;;2.85;1.08;;;;;;;26.25;100.00;101988.94;5081876;28;20058;-49
2022/07/22 07:38:39;;;;;;;4.23;0.90;;;;;;;26.16;100.00;101989.50;5080251;28;20124;-50
2022/07/22 07:41:08;;;;;;;2.87;0.90;;;;;;;26.55;100.00;101998.25;5083151;28;20029;-50
2022/07/22 07:43:37;;;;;;;6.20;1.80;;;;;;;26.42;100.00;101983.19;5082457;28;20037;-52
2022/07/22 07:46:02;;;;;;;3.33;0.85;;;;;;;27.24;100.00;102004.16;5077693;28;20058;-52
2022/07/22 07:48:28;;;;;;;4.88;1.02;;;;;;;27.19;100.00;102004.97;5078938;28;20039;-54
2022/07/22 07:50:54;;;;;;;;;;;;;;;27.27;100.00;102002.75;5086614;28;20049;-52
2022/07/22 07:53:19;;;;;;;3.53;0.83;;;;;;;27.40;100.00;102001.31;5075911;28;19935;-50
2022/07/22 07:55:45;;;;;;;2.72;0.88;;;;;;;27.40;100.00;102010.38;5070124;28;20065;-52
2022/07/22 07:58:11;;;;;;;3.72;0.90;;;;;;;27.42;100.00;102001.84;5064724;28;20033;-51
2022/07/22 08:00:39;;;;;;;3.63;1.20;;;;;;;27.44;100.00;102007.88;5065272;28;20092;-51
2022/07/22 08:03:05;;;;;;;2.93;1.07;;;;;;;27.75;100.00;102002.25;5072941;28;20032;-49
2022/07/22 08:05:31;;;;;;;6.20;1.20;;;;;;;27.61;100.00;102007.56;5072205;28;20033;-54
2022/07/22 08:07:59;;;;;;;6.00;0.90;;;;;;;27.91;100.00;102003.81;5069031;28;20492;-52
2022/07/22 08:10:24;;;;;;;;;;;;;;;27.70;100.00;101997.63;5070077;28;20048;-50
2022/07/22 08:13:12;;;;;;;4.63;1.05;;;;;;;27.74;100.00;102006.13;5047367;28;19922;-51
2022/07/22 08:15:42;;;;;;;2.83;0.97;;;;;;;27.78;100.00;102012.69;5070855;28;20032;-50
2022/07/22 08:18:15;;;;;;;4.50;1.00;;;;;;;27.45;100.00;101998.53;5072954;28;20021;-52
2022/07/22 08:20:41;;;;;;;;;;;;;;;27.45;100.00;102006.78;5073437;28;20048;-51
2022/07/22 08:23:06;;;;;;;1.80;0.90;;;;;;;27.44;100.00;102002.38;5080064;28;20019;-54
2022/07/22 08:25:34;;;;;;;4.60;1.80;;;;;;;27.44;100.00;101994.97;5070564;28;20124;-51
2022/07/22 08:27:59;;;;;;;;;;;;;;;27.60;98.75;101983.94;5079831;28;20088;-50
2022/07/22 08:30:27;;;;;;;4.33;0.83;;;;;;;27.53;97.15;101998.00;5074863;28;19913;-52
2022/07/22 08:32:53;;;;;;;3.53;1.63;;;;;;;27.48;100.00;101992.50;5091096;28;20045;-50
2022/07/22 08:35:19;;;;;;;6.07;1.30;;;;;;;27.39;100.00;101994.19;5073835;28;20029;-52
2022/07/22 08:37:46;;;;;;;;;;;;;;;27.63;97.56;101986.94;5075991;28;20079;-54
2022/07/22 08:40:13;;;;;;;;;;;;;;;27.93;100.00;101988.97;5074292;28;19920;-50
2022/07/22 08:42:40;;;;;;;3.63;1.27;;;;;;;28.31;90.37;101994.72;5077759;28;19913;-48
2022/07/22 08:45:07;;;;;;;6.73;1.83;;;;;;;28.00;88.71;101986.69;5080659;28;20048;-49
2022/07/22 08:47:32;;;;;;;4.90;1.47;;;;;;;28.02;89.14;101984.47;5076660;28;20035;-52
2022/07/22 08:50:31;;;;;;;20.20;8.87;;;;;;;28.29;94.38;101974.94;5065438;28;20091;-53
2022/07/22 08:53:12;;;;;;;16.17;8.93;;;;;;;28.42;91.42;101974.28;5078595;28;20028;-50
2022/07/22 08:55:47;;;;;;;10.00;1.13;;;;;;;28.46;86.56;101978.06;5070590;28;20048;-53
2022/07/22 08:58:14;;;;;;;5.03;1.70;;;;;;;28.60;88.22;101969.94;5077561;28;20036;-53
2022/07/22 09:00:40;;;;;;;8.33;4.40;;;;;;;28.77;92.19;101972.25;5076836;28;20037;-50
2022/07/22 09:03:20;;;;;;;;;;;;;;;28.72;89.59;101969.56;5073701;28;20062;-54
2022/07/22 09:05:46;;;;;;;5.77;2.03;;;;;;;28.97;87.31;101962.13;5077623;28;19912;-54
2022/07/22 09:08:15;;;;;;;12.27;4.00;;;;;;;28.71;86.38;101967.91;5078149;28;20033;-55
2022/07/22 09:10:51;;;;;;;21.50;10.55;;;;;;;28.00;88.57;101976.50;5076197;28;20034;-50
2022/07/22 09:13:59;;;;;;;3.43;1.00;;;;;;;27.83;86.55;101982.41;5070840;28;20443;-53
2022/07/22 09:17:05;;;;;;;3.92;0.85;;;;;;;28.62;84.58;101980.69;5070032;28;20039;-55
2022/07/22 09:19:38;;;;;;;4.43;1.00;;;;;;;28.51;84.71;101979.97;5054015;28;20105;-51
2022/07/22 09:22:31;;;;;;;2.70;0.80;;;;;;;28.58;80.84;101974.09;5062249;28;20033;-54
2022/07/22 09:25:31;;;;;;;4.63;0.90;;;;;;;28.80;81.14;101976.38;5076655;28;20040;-54
2022/07/22 09:28:19;;;;;;;6.33;2.07;;;;;;;29.03;84.31;101980.22;5071471;28;20063;-51
2022/07/22 09:31:25;;;;;;;11.60;1.83;;;;;;;28.71;83.34;101983.59;5071729;28;20113;-55
2022/07/22 09:33:53;;;;;;;2.40;0.90;;;;;;;29.27;79.29;101984.06;5054818;28;20053;-56
2022/07/22 09:36:22;;;;;;;4.03;1.33;;;;;;;28.18;86.56;101976.94;5061057;28;20056;-52
2022/07/22 09:38:49;;;;;;;6.27;2.80;;;;;;;28.40;86.39;101968.25;5066685;28;20029;-51
2022/07/22 09:41:16;;;;;;;3.50;1.40;;;;;;;28.13;86.75;101968.72;5071341;28;20056;-58
2022/07/22 09:43:42;;;;;;;4.37;0.83;;;;;;;29.29;82.62;101966.13;5069400;28;20094;-54
2022/07/22 09:46:09;;;;;;;;;;;;;;;29.31;81.83;101963.09;5076572;28;20105;-53
2022/07/22 09:48:53;;;;;;;3.70;1.23;;;;;;;29.22;79.65;101956.59;5070031;28;19976;-51
2022/07/22 09:51:33;;;;;;;6.55;2.22;;;;;;;30.50;75.57;101952.94;5070315;28;20033;-54
2022/07/22 09:54:34;;;;;;;3.72;1.60;;;;;;;29.76;78.48;101965.50;5080761;28;20063;-55
2022/07/22 09:57:01;;;;;;;4.70;1.20;;;;;;;29.72;77.18;101959.75;5069932;28;20071;-56
2022/07/22 09:59:26;;;;;;;;;;;;;;;30.21;70.65;101967.81;5076381;28;20059;-56
2022/07/22 10:02:03;;;;;;;5.50;1.42;;;;;;;30.15;70.94;101977.31;5075054;28;19921;-55
2022/07/22 10:04:33;;;;;;;4.25;1.88;;;;;;;30.65;69.28;101970.38;5076843;28;20025;-54
2022/07/22 10:07:01;;;;;;;4.72;1.15;;;;;;;30.90;70.50;101972.63;5076118;28;20025;-54
2022/07/22 10:09:31;;;;;;;3.08;0.98;;;;;;;31.03;62.66;101970.97;5074663;28;20037;-54
2022/07/22 10:11:57;;;;;;;3.70;1.17;;;;;;;30.76;64.42;101972.63;5073744;28;20039;-54
2022/07/22 10:14:24;;;;;;;4.97;1.10;;;;;;;31.09;61.66;101977.22;5073761;28;20048;-55
2022/07/22 10:16:53;;;;;;;1.98;0.70;;;;;;;30.59;63.09;101966.84;5076644;28;20044;-55
2022/07/22 10:19:19;;;;;;;1.88;0.70;;;;;;;30.74;60.58;101968.53;5075856;28;20025;-55
2022/07/22 10:21:44;;;;;;;11.90;0.93;;;;;;;30.65;58.64;101965.66;5078217;28;20093;-55
2022/07/22 10:24:17;;;;;;;4.78;1.38;;;;;;;30.58;60.75;101965.22;5074516;28;20054;-53
2022/07/22 10:26:49;;;;;;;5.82;0.90;;;;;;;30.44;60.84;101967.97;5071692;28;20024;-55
2022/07/22 10:29:31;;;;;;;2.90;0.73;;;;;;;30.90;59.69;101966.25;5076587;28;20052;-53
2022/07/22 10:32:15;;;;;;;4.05;0.90;;;;;;;30.23;62.20;101973.06;5078227;28;20029;-54
2022/07/22 10:34:41;;;;;;;3.08;0.85;;;;;;;29.85;63.48;101977.47;5075860;28;20043;-52
2022/07/22 10:37:34;;;;;;;2.33;1.05;;;;;;;29.83;63.98;101974.22;5079182;28;20043;-48
2022/07/22 10:40:16;;;;;;;6.50;1.08;;;;;;;29.79;66.92;101975.94;5080032;28;20025;-51
2022/07/22 10:42:59;;;;;;;3.17;1.50;;;;;;;30.77;60.98;101976.19;5075474;28;20053;-49
2022/07/22 10:45:26;;;;;;;5.40;1.20;;;;;;;32.29;52.85;101972.50;5073869;28;20045;-53
2022/07/22 10:47:56;;;;;;;4.65;1.83;;;;;;;32.50;51.79;101974.75;5071773;28;20084;-51
2022/07/22 10:50:40;;;;;;;13.25;1.55;;;;;;;33.09;51.05;101973.69;5072320;28;20044;-52
2022/07/22 10:53:12;;;;;;;3.83;0.88;;;;;;;32.16;51.42;101977.81;5071086;28;20037;-54
2022/07/22 10:55:59;;;;;;;3.70;0.82;;;;;;;31.81;52.51;101974.81;5073040;28;20035;-51
2022/07/22 10:58:33;;;;;;;7.10;1.40;;;;;;;31.55;53.81;101964.34;5054743;28;20076;-51
2022/07/22 11:01:01;;;;;;;9.68;1.50;;;;;;;31.33;55.77;101968.69;5073759;28;20067;-53
2022/07/22 11:03:28;;;;;;;4.28;1.20;;;;;;;31.39;54.37;101965.84;5072424;28;20037;-51
2022/07/22 11:05:55;;;;;;;3.65;0.90;;;;;;;31.25;56.20;101963.91;5072294;28;20115;-54
2022/07/22 11:08:22;;;;;;;3.13;1.00;;;;;;;30.78;57.37;101961.25;5069380;28;20040;-54
2022/07/22 11:10:49;;;;;;;5.28;1.10;;;;;;;30.48;59.10;101957.94;5076090;28;20033;-52
2022/07/22 11:13:34;;;;;;;3.17;1.02;;;;;;;30.62;59.89;101960.75;5082471;28;20044;-55
2022/07/22 11:16:18;;;;;;;7.70;2.20;;;;;;;30.56;59.84;101948.94;5077403;28;20043;-53
2022/07/22 11:19:04;;;;;;;3.13;0.95;;;;;;;30.40;60.31;101948.44;5076925;28;20049;-54
2022/07/22 11:21:32;;;;;;;7.95;2.47;;;;;;;30.56;63.08;101945.38;5072592;28;20044;-50
2022/07/22 11:24:01;;;;;;;4.32;1.30;;;;;;;30.53;61.59;101944.06;5072957;28;20090;-55
2022/07/22 11:26:44;;;;;;;6.57;1.40;;;;;;;30.50;62.20;101941.91;5073818;28;20056;-52